Time;durP1;ratioP1;P1;durP2;ratioP2;P2;SDS_P1;SDS_P2;PMS_P1;PMS_P2;Temp;Humidity;BMP_temperature;BMP_pressure;BME280_temperature;BME280_humidity;BME280_pressure;Samples;Min_cycle;Max_cycle;Signal;HPM_P1;HPM_P2
2022/12/22 03:25:53;;;;;;;58.95;21.33;;;9.20;99.90;;;;;;5023843;28;20067;-66
2022/12/22 03:28:21;;;;;;;52.15;20.35;;;9.20;99.90;;;;;;5030954;28;20121;-66
2022/12/22 03:30:53;;;;;;;55.47;19.85;;;9.20;99.90;;;;;;5031402;28;20464;-65
2022/12/22 03:33:19;;;;;;;51.00;20.08;;;9.20;99.90;;;;;;5017822;28;20072;-65
2022/12/22 03:35:45;;;;;;;54.35;19.92;;;9.20;99.90;;;;;;5028660;28;20041;-65
2022/12/22 03:38:10;;;;;;;59.15;21.38;;;9.20;99.90;;;;;;5035170;28;20041;-66
2022/12/22 03:40:36;;;;;;;61.50;21.08;;;9.20;99.90;;;;;;5019672;28;20030;-66
2022/12/22 03:48:30;;;;;;;48.75;20.20;;;9.20;99.90;;;;;;5030056;28;20168;-65
2022/12/22 03:50:55;;;;;;;59.92;21.83;;;9.20;99.90;;;;;;5024959;28;20049;-66
2022/12/22 03:53:21;;;;;;;54.95;21.33;;;9.20;99.90;;;;;;5034756;28;20037;-66
2022/12/22 03:55:46;;;;;;;58.13;21.55;;;9.20;99.90;;;;;;5035235;28;20535;-65
2022/12/22 03:58:12;;;;;;;58.03;21.42;;;9.20;99.90;;;;;;5023945;28;20076;-65
2022/12/22 04:00:38;;;;;;;61.63;22.23;;;9.20;99.90;;;;;;5031113;28;20480;-65
2022/12/22 04:03:03;;;;;;;58.42;21.63;;;9.20;99.90;;;;;;5034516;28;20120;-66
2022/12/22 04:05:29;;;;;;;66.18;22.00;;;9.20;99.90;;;;;;5030429;28;20476;-66
2022/12/22 04:07:54;;;;;;;62.22;20.40;;;9.20;99.90;;;;;;5031753;28;20448;-66
2022/12/22 04:13:04;;;;;;;60.75;21.85;;;9.20;99.90;;;;;;5031974;28;20132;-66
2022/12/22 04:15:31;;;;;;;60.60;21.23;;;9.10;99.90;;;;;;5012675;28;20152;-66
2022/12/22 04:17:58;;;;;;;66.07;22.13;;;9.20;99.90;;;;;;5027112;28;20033;-66
2022/12/22 04:20:28;;;;;;;64.57;22.58;;;9.20;99.90;;;;;;5032630;28;20083;-66
2022/12/22 04:22:55;;;;;;;62.90;21.95;;;9.20;99.90;;;;;;5033306;28;20045;-66
2022/12/22 04:25:21;;;;;;;55.13;20.45;;;9.20;99.90;;;;;;5021659;28;20069;-66
2022/12/22 04:27:46;;;;;;;59.63;20.48;;;9.20;99.90;;;;;;5032894;28;20427;-66
2022/12/22 04:30:13;;;;;;;63.08;22.13;;;9.20;99.90;;;;;;5028998;28;20030;-66
2022/12/22 04:32:39;;;;;;;57.13;20.90;;;9.20;99.90;;;;;;5027179;28;20040;-66
2022/12/22 04:35:06;;;;;;;63.88;21.25;;;9.20;99.90;;;;;;5033642;28;20037;-66
2022/12/22 04:37:31;;;;;;;58.50;21.23;;;9.20;99.90;;;;;;5034416;28;20472;-66
2022/12/22 04:39:57;;;;;;;65.95;21.60;;;9.20;99.90;;;;;;5026967;28;20030;-66
2022/12/22 04:42:22;;;;;;;63.47;20.65;;;9.20;99.90;;;;;;5014273;28;20403;-66
2022/12/22 04:44:49;;;;;;;62.72;22.13;;;9.20;99.90;;;;;;5033876;28;20113;-66
2022/12/22 04:47:14;;;;;;;66.60;21.48;;;9.20;99.90;;;;;;5010531;28;20125;-66
2022/12/22 04:49:40;;;;;;;68.65;22.17;;;9.20;99.90;;;;;;5025829;28;20167;-66
2022/12/22 04:52:05;;;;;;;51.33;20.25;;;9.20;99.90;;;;;;5033472;28;20040;-66
2022/12/22 04:54:31;;;;;;;57.58;20.13;;;9.20;99.90;;;;;;5034167;28;20041;-66
2022/12/22 04:56:57;;;;;;;52.38;20.30;;;9.20;99.90;;;;;;5023493;28;20432;-66
2022/12/22 04:59:22;;;;;;;52.15;20.40;;;9.20;99.90;;;;;;4998596;28;20537;-66
2022/12/22 05:01:48;;;;;;;57.83;20.23;;;9.20;99.90;;;;;;5022346;28;20087;-66
2022/12/22 05:04:13;;;;;;;64.78;20.17;;;9.20;99.90;;;;;;5026770;28;20052;-66
2022/12/22 05:06:39;;;;;;;66.32;21.02;;;9.20;99.90;;;;;;5033000;28;20400;-66
2022/12/22 05:09:05;;;;;;;67.25;21.73;;;9.20;99.90;;;;;;5033341;28;20167;-66
2022/12/22 05:11:30;;;;;;;70.32;20.90;;;9.20;99.90;;;;;;5030309;28;20403;-66
2022/12/22 05:13:56;;;;;;;64.53;20.83;;;9.20;99.90;;;;;;5032864;28;20037;-66
2022/12/22 05:16:22;;;;;;;67.03;19.25;;;9.20;99.90;;;;;;5033155;28;20052;-66
2022/12/22 05:18:47;;;;;;;56.83;20.08;;;9.20;99.90;;;;;;5033508;28;20124;-66
2022/12/22 05:21:18;;;;;;;54.70;19.92;;;9.20;99.90;;;;;;5021525;28;20073;-66
2022/12/22 05:23:45;;;;;;;44.13;18.67;;;9.20;99.90;;;;;;5005785;28;20037;-66
2022/12/22 05:26:13;;;;;;;45.97;19.13;;;9.20;99.90;;;;;;5032999;28;20068;-66
2022/12/22 05:28:39;;;;;;;58.85;21.05;;;9.20;99.90;;;;;;5032503;28;20107;-66
2022/12/22 05:31:07;;;;;;;61.95;20.92;;;9.20;99.90;;;;;;5021682;28;20038;-66
2022/12/22 05:33:32;;;;;;;46.20;20.13;;;9.20;99.90;;;;;;5031775;28;20033;-66
2022/12/22 05:35:58;;;;;;;49.40;21.10;;;9.20;99.90;;;;;;5039970;28;20125;-66
2022/12/22 05:38:24;;;;;;;48.00;20.23;;;9.20;99.90;;;;;;5012639;28;20042;-66
2022/12/22 05:40:49;;;;;;;49.45;19.85;;;9.20;99.90;;;;;;5030703;28;20761;-66
2022/12/22 05:43:15;;;;;;;49.22;20.15;;;9.30;99.90;;;;;;5032905;28;20037;-66
2022/12/22 05:45:44;;;;;;;51.25;21.00;;;9.30;99.90;;;;;;5027222;28;20042;-66
2022/12/22 05:48:10;;;;;;;49.45;20.55;;;9.30;99.90;;;;;;5031286;28;20084;-66
2022/12/22 05:50:36;;;;;;;59.47;21.58;;;9.30;99.90;;;;;;5016266;28;20045;-66
2022/12/22 05:53:01;;;;;;;69.22;21.67;;;9.30;99.90;;;;;;5028706;28;20029;-66
2022/12/22 05:55:27;;;;;;;53.08;20.40;;;9.30;99.90;;;;;;5023861;28;20096;-66
2022/12/22 05:57:52;;;;;;;95.53;21.30;;;9.30;99.90;;;;;;5038455;28;20032;-66
2022/12/22 06:00:19;;;;;;;66.38;21.00;;;9.30;99.90;;;;;;5051592;28;20029;-66
2022/12/22 06:02:44;;;;;;;73.28;21.33;;;9.30;99.90;;;;;;5021162;28;20196;-66
2022/12/22 06:05:11;;;;;;;68.03;21.50;;;9.30;99.90;;;;;;5028739;28;20571;-66
2022/12/22 06:07:37;;;;;;;81.32;22.27;;;9.20;99.90;;;;;;5032666;28;20080;-66
2022/12/22 06:10:08;;;;;;;69.45;21.25;;;9.20;99.90;;;;;;5032460;28;20080;-66
2022/12/22 06:12:34;;;;;;;70.75;20.45;;;9.20;99.90;;;;;;4995085;28;20052;-66
2022/12/22 06:14:59;;;;;;;62.63;21.38;;;9.20;99.90;;;;;;5028013;28;20045;-66
2022/12/22 06:17:25;;;;;;;66.13;20.92;;;9.20;99.90;;;;;;5033368;28;20037;-66
2022/12/22 06:19:50;;;;;;;58.20;20.95;;;9.20;99.90;;;;;;5018035;28;20033;-66
2022/12/22 06:22:16;;;;;;;64.60;21.63;;;9.20;99.90;;;;;;5039901;28;20045;-66
2022/12/22 06:24:42;;;;;;;83.95;21.65;;;9.20;99.90;;;;;;5041598;28;20380;-66
2022/12/22 06:27:09;;;;;;;56.30;19.67;;;9.20;99.90;;;;;;5014603;28;20046;-66
2022/12/22 06:29:35;;;;;;;50.13;19.83;;;9.20;99.90;;;;;;5031394;28;20119;-66
2022/12/22 06:32:01;;;;;;;52.55;20.30;;;9.20;99.90;;;;;;5034967;28;20124;-66
2022/12/22 06:34:27;;;;;;;47.78;19.83;;;9.20;99.90;;;;;;5032949;28;20404;-66
2022/12/22 06:36:52;;;;;;;48.13;18.67;;;9.20;99.90;;;;;;5040106;28;20025;-66
2022/12/22 06:39:18;;;;;;;50.92;19.02;;;9.20;99.90;;;;;;5039928;28;20038;-66
2022/12/22 06:44:29;;;;;;;50.55;19.15;;;9.30;99.90;;;;;;5022314;28;20053;-66
2022/12/22 06:46:54;;;;;;;51.42;18.42;;;9.30;99.90;;;;;;5010340;28;20036;-66
2022/12/22 06:49:20;;;;;;;48.38;18.45;;;9.40;99.90;;;;;;5018957;28;20045;-66
2022/12/22 06:51:46;;;;;;;53.28;17.80;;;9.40;99.90;;;;;;5022362;28;20475;-66
2022/12/22 06:54:11;;;;;;;53.53;18.25;;;9.40;99.90;;;;;;5014864;28;20144;-66
2022/12/22 06:56:37;;;;;;;54.75;18.55;;;9.30;99.90;;;;;;5030092;28;20060;-66
2022/12/22 06:59:03;;;;;;;46.90;17.02;;;9.40;99.90;;;;;;5032002;28;20038;-66
2022/12/22 07:01:29;;;;;;;54.42;18.45;;;9.30;99.90;;;;;;5002492;28;20041;-66
2022/12/22 07:03:54;;;;;;;50.70;16.88;;;9.40;99.90;;;;;;5026536;28;20205;-66
2022/12/22 07:06:20;;;;;;;60.75;19.30;;;9.30;99.90;;;;;;5031470;28;20453;-66
2022/12/22 07:08:46;;;;;;;62.45;19.35;;;9.30;99.90;;;;;;5031031;28;20045;-65
2022/12/22 07:11:13;;;;;;;65.38;19.13;;;9.30;99.90;;;;;;5027298;28;20136;-66
2022/12/22 07:13:39;;;;;;;57.78;18.85;;;9.20;99.90;;;;;;5024952;28;20038;-67
2022/12/22 07:16:06;;;;;;;65.68;19.52;;;9.30;99.90;;;;;;5033311;28;20086;-66
2022/12/22 07:18:37;;;;;;;62.95;19.08;;;9.20;99.90;;;;;;5022208;28;20046;-66
2022/12/22 07:21:08;;;;;;;61.35;19.50;;;9.20;99.90;;;;;;5024674;28;20029;-65
2022/12/22 07:23:34;;;;;;;61.63;19.73;;;9.10;99.90;;;;;;5023933;28;20033;-66
2022/12/22 07:26:00;;;;;;;61.70;19.15;;;9.00;99.90;;;;;;5031343;28;20479;-68
2022/12/22 07:28:26;;;;;;;63.17;19.02;;;9.00;99.90;;;;;;5012476;28;20132;-67
2022/12/22 07:30:53;;;;;;;63.60;19.55;;;8.90;99.90;;;;;;5025824;28;20112;-67
2022/12/22 07:33:19;;;;;;;67.65;19.80;;;8.80;99.90;;;;;;5031627;28;20045;-66
2022/12/22 07:35:45;;;;;;;60.00;18.98;;;8.80;99.90;;;;;;5015961;28;20048;-67
2022/12/22 07:38:11;;;;;;;65.10;20.17;;;8.70;99.90;;;;;;5015903;28;20455;-66
2022/12/22 07:40:36;;;;;;;64.13;19.30;;;8.70;99.90;;;;;;5033516;28;21496;-66
2022/12/22 07:43:02;;;;;;;56.08;18.38;;;8.50;99.90;;;;;;5047298;28;20037;-67
2022/12/22 07:45:28;;;;;;;58.97;17.98;;;8.40;99.90;;;;;;5029936;28;20033;-66
2022/12/22 07:48:01;;;;;;;62.50;18.98;;;8.40;99.90;;;;;;5030942;28;20037;-66
2022/12/22 07:50:27;;;;;;;94.53;18.02;;;8.30;99.90;;;;;;5013784;28;20038;-65
2022/12/22 07:53:01;;;;;;;63.15;19.88;;;8.20;99.90;;;;;;5021890;28;20113;-67
2022/12/22 07:55:34;;;;;;;206.95;18.63;;;8.10;99.90;;;;;;5030558;28;20029;-66
2022/12/22 07:58:00;;;;;;;132.45;18.85;;;8.00;99.90;;;;;;5013618;28;20407;-66
2022/12/22 08:00:26;;;;;;;253.82;20.50;;;7.90;99.90;;;;;;5009420;28;20041;-66
2022/12/22 08:02:53;;;;;;;317.13;20.92;;;7.90;99.90;;;;;;5030448;28;20120;-66
2022/12/22 08:05:20;;;;;;;362.70;19.10;;;7.80;99.90;;;;;;5012706;28;20045;-67
2022/12/22 08:07:48;;;;;;;325.33;19.77;;;7.70;99.90;;;;;;5028162;28;20053;-66
2022/12/22 08:10:14;;;;;;;487.30;22.33;;;7.60;99.90;;;;;;5019343;28;20056;-66
2022/12/22 08:12:40;;;;;;;461.73;21.30;;;7.50;99.90;;;;;;5030627;28;20052;-66
2022/12/22 08:15:08;;;;;;;607.78;28.52;;;7.30;99.90;;;;;;5013354;28;20384;-66
2022/12/22 08:17:34;;;;;;;635.33;27.30;;;7.30;99.90;;;;;;5025052;28;20042;-67
2022/12/22 08:20:00;;;;;;;717.63;29.33;;;7.10;99.90;;;;;;5012914;28;20041;-66
2022/12/22 08:22:25;;;;;;;331.27;19.27;;;7.10;99.90;;;;;;5033517;28;20026;-67
2022/12/22 08:24:54;;;;;;;154.50;17.20;;;7.00;99.90;;;;;;5028012;28;20053;-66
2022/12/22 08:27:37;;;;;;;136.88;20.60;;;7.10;99.90;;;;;;5021044;28;20037;-66
2022/12/22 08:30:03;;;;;;;269.33;22.25;;;7.40;99.90;;;;;;5034345;28;20399;-66
2022/12/22 08:32:29;;;;;;;242.00;20.58;;;7.60;99.90;;;;;;5016295;28;20047;-66
2022/12/22 08:34:55;;;;;;;153.77;18.42;;;7.70;99.90;;;;;;5021641;28;20054;-66
2022/12/22 08:37:23;;;;;;;120.35;16.60;;;7.80;99.90;;;;;;5014991;28;20048;-65
2022/12/22 08:39:54;;;;;;;94.43;15.05;;;7.80;99.90;;;;;;5034417;28;20105;-66
2022/12/22 08:42:22;;;;;;;87.13;16.05;;;7.80;99.90;;;;;;5028187;28;20037;-66
2022/12/22 08:44:52;;;;;;;79.97;15.15;;;7.80;99.90;;;;;;5034026;28;20553;-65
2022/12/22 08:47:19;;;;;;;56.35;15.80;;;7.80;99.90;;;;;;5033910;28;20068;-67
2022/12/22 08:49:45;;;;;;;66.22;15.95;;;7.90;99.90;;;;;;5026627;28;20045;-65
2022/12/22 08:52:10;;;;;;;55.90;16.40;;;7.90;99.90;;;;;;5019499;28;20439;-65
2022/12/22 08:54:36;;;;;;;52.85;14.70;;;7.90;99.90;;;;;;5025991;28;20034;-66
2022/12/22 08:57:02;;;;;;;44.83;14.38;;;7.90;99.90;;;;;;5033953;28;20064;-66
2022/12/22 08:59:27;;;;;;;52.80;15.35;;;7.90;99.90;;;;;;5019455;28;20131;-66
2022/12/22 09:01:53;;;;;;;51.25;15.18;;;8.00;99.90;;;;;;5030560;28;20041;-66
2022/12/22 09:04:20;;;;;;;52.28;15.20;;;8.00;99.90;;;;;;5033938;28;20403;-67
2022/12/22 09:06:46;;;;;;;50.55;14.73;;;8.00;99.90;;;;;;5027825;28;20546;-66
2022/12/22 09:09:13;;;;;;;48.30;13.95;;;7.90;99.90;;;;;;5014353;28;20040;-65
2022/12/22 09:11:40;;;;;;;43.58;13.77;;;7.90;99.90;;;;;;5038321;28;20128;-66
2022/12/22 09:14:06;;;;;;;50.45;14.38;;;8.00;99.90;;;;;;5043168;28;20116;-66
2022/12/22 09:16:33;;;;;;;52.40;14.57;;;8.00;99.90;;;;;;5019392;28;20041;-65
2022/12/22 09:18:59;;;;;;;47.58;13.77;;;8.00;99.90;;;;;;5042010;28;20124;-65
2022/12/22 09:21:25;;;;;;;44.92;14.55;;;8.00;99.90;;;;;;5033034;28;20113;-66
2022/12/22 09:23:51;;;;;;;43.33;14.30;;;8.00;99.90;;;;;;5028879;28;20396;-68
2022/12/22 09:26:19;;;;;;;44.85;13.73;;;8.00;99.90;;;;;;5019830;28;20088;-66
2022/12/22 09:28:45;;;;;;;37.42;13.40;;;7.90;99.90;;;;;;5032709;28;20525;-65
2022/12/22 09:31:11;;;;;;;34.70;11.23;;;7.90;99.90;;;;;;5029198;28;20064;-65
2022/12/22 09:33:37;;;;;;;28.65;10.13;;;7.90;99.90;;;;;;5020402;28;20037;-66
2022/12/22 09:36:11;;;;;;;25.15;9.10;;;7.80;99.90;;;;;;5029649;28;20036;-66
2022/12/22 09:38:38;;;;;;;30.27;10.50;;;7.70;99.90;;;;;;5013780;28;20092;-65
2022/12/22 09:41:30;;;;;;;32.67;11.27;;;7.70;99.90;;;;;;5013505;28;20034;-67
2022/12/22 09:44:00;;;;;;;27.52;9.02;;;7.70;99.90;;;;;;5021359;28;20124;-67
2022/12/22 09:46:29;;;;;;;36.53;10.63;;;7.70;99.90;;;;;;5028354;28;20472;-66
2022/12/22 09:48:54;;;;;;;37.83;10.90;;;7.70;99.90;;;;;;5022556;28;20073;-66
2022/12/22 09:51:21;;;;;;;32.00;11.15;;;7.70;99.90;;;;;;5026356;28;20099;-67
2022/12/22 09:53:51;;;;;;;33.40;10.80;;;7.80;99.90;;;;;;5006153;28;20156;-67
2022/12/22 09:56:17;;;;;;;34.28;11.38;;;7.80;99.90;;;;;;5030551;28;20041;-66
2022/12/22 09:58:44;;;;;;;37.05;11.63;;;7.80;99.90;;;;;;5037103;28;20073;-65
2022/12/22 10:01:29;;;;;;;34.53;11.02;;;7.80;99.90;;;;;;5034137;28;20060;-65
2022/12/22 10:04:30;;;;;;;34.33;10.95;;;7.80;99.90;;;;;;5033833;28;20091;-65
2022/12/22 10:07:19;;;;;;;37.60;11.60;;;7.80;99.90;;;;;;5031683;28;20079;-67
2022/12/22 10:09:44;;;;;;;34.70;10.93;;;7.90;99.90;;;;;;5035894;28;20036;-65
2022/12/22 10:12:15;;;;;;;46.60;12.75;;;8.00;99.90;;;;;;5040711;28;20044;-65
2022/12/22 10:14:43;;;;;;;33.95;11.00;;;8.00;99.90;;;;;;5032564;28;20543;-67
2022/12/22 10:17:20;;;;;;;34.45;11.52;;;8.10;99.90;;;;;;5037547;28;20044;-67
2022/12/22 10:19:48;;;;;;;32.53;10.90;;;8.10;99.90;;;;;;5035941;28;20459;-65
2022/12/22 10:22:34;;;;;;;31.27;10.93;;;8.10;99.90;;;;;;5030973;28;20400;-66
2022/12/22 10:25:01;;;;;;;27.50;10.32;;;8.20;99.90;;;;;;5021450;28;20077;-66
2022/12/22 10:27:31;;;;;;;29.75;10.57;;;8.30;99.90;;;;;;5022542;28;20037;-66
2022/12/22 10:30:28;;;;;;;27.08;9.70;;;8.40;99.90;;;;;;5030251;28;20064;-66
2022/12/22 10:33:02;;;;;;;23.15;9.00;;;8.50;99.90;;;;;;5027205;28;20045;-67
2022/12/22 10:35:42;;;;;;;19.35;8.52;;;8.50;99.90;;;;;;5014174;28;20442;-66
2022/12/22 10:38:19;;;;;;;21.42;8.85;;;8.40;99.90;;;;;;5025266;28;20041;-66
2022/12/22 10:40:48;;;;;;;19.80;8.63;;;8.40;99.90;;;;;;5022838;28;20483;-66
2022/12/22 10:43:19;;;;;;;21.92;8.65;;;8.40;99.90;;;;;;5031971;28;20045;-66
2022/12/22 10:45:48;;;;;;;;;;;8.30;99.90;;;;;;5026869;28;20073;-66
2022/12/22 10:48:14;;;;;;;19.48;8.30;;;8.10;99.90;;;;;;5019231;28;19943;-66
2022/12/22 10:50:46;;;;;;;21.40;8.38;;;7.90;99.90;;;;;;5031722;28;20105;-65
2022/12/22 10:53:11;;;;;;;;;;;7.90;99.90;;;;;;5035231;28;20041;-65
2022/12/22 10:55:38;;;;;;;17.05;7.57;;;7.80;99.90;;;;;;5023806;28;19917;-67
2022/12/22 10:58:09;;;;;;;18.25;7.63;;;7.80;99.90;;;;;;5023093;28;20048;-66
2022/12/22 11:00:37;;;;;;;17.98;8.05;;;7.90;99.90;;;;;;5024340;28;20048;-66
2022/12/22 11:03:05;;;;;;;13.43;6.97;;;8.00;99.90;;;;;;5032803;28;20400;-66
2022/12/22 11:05:32;;;;;;;16.23;8.45;;;8.00;99.90;;;;;;5023302;28;20029;-66
2022/12/22 11:08:17;;;;;;;17.90;7.95;;;8.00;99.90;;;;;;5022346;28;20104;-67
2022/12/22 11:10:57;;;;;;;17.02;7.50;;;7.90;99.90;;;;;;5025716;28;20870;-66
2022/12/22 11:13:51;;;;;;;17.85;8.00;;;8.00;99.90;;;;;;5018511;28;20068;-66
2022/12/22 11:16:36;;;;;;;17.67;8.45;;;8.10;99.90;;;;;;5023656;28;20041;-66
2022/12/22 11:19:07;;;;;;;19.00;8.80;;;8.20;99.90;;;;;;5019089;28;20111;-67
2022/12/22 11:21:56;;;;;;;17.95;8.38;;;8.30;99.90;;;;;;5047110;28;20112;-66
2022/12/22 11:24:38;;;;;;;22.17;9.57;;;8.40;99.90;;;;;;5032094;28;20041;-66
2022/12/22 11:27:22;;;;;;;20.65;9.05;;;8.40;99.90;;;;;;5039297;28;20033;-67
2022/12/22 11:30:06;;;;;;;20.50;8.63;;;8.50;99.90;;;;;;5020575;28;20038;-70
2022/12/22 11:32:50;;;;;;;18.75;8.82;;;8.50;99.90;;;;;;4997688;28;20064;-66
2022/12/22 11:35:45;;;;;;;20.30;8.23;;;8.50;99.90;;;;;;5025617;28;20045;-65
2022/12/22 11:38:44;;;;;;;19.27;8.77;;;8.60;99.90;;;;;;5027502;28;20077;-65
2022/12/22 11:41:15;;;;;;;24.17;9.38;;;8.50;99.90;;;;;;5028270;28;20069;-65
2022/12/22 11:43:56;;;;;;;;;;;8.50;99.90;;;;;;5031175;28;20045;-66
2022/12/22 11:46:37;;;;;;;21.23;8.25;;;8.50;99.90;;;;;;5027093;28;20405;-66
2022/12/22 11:49:31;;;;;;;20.60;8.50;;;8.50;99.90;;;;;;5027900;28;20053;-65
2022/12/22 11:52:50;;;;;;;22.05;8.68;;;8.60;99.90;;;;;;5011257;28;20393;-67
2022/12/22 11:55:46;;;;;;;21.65;8.52;;;8.60;99.90;;;;;;4987414;28;20046;-66
2022/12/22 11:58:31;;;;;;;19.60;8.07;;;8.70;99.90;;;;;;5002435;28;20086;-66
2022/12/22 12:01:09;;;;;;;20.08;8.48;;;8.80;99.90;;;;;;5026785;28;20057;-67
2022/12/22 12:03:43;;;;;;;25.98;8.57;;;8.80;99.90;;;;;;5039215;28;20029;-65
2022/12/22 12:06:42;;;;;;;24.50;8.52;;;8.80;99.90;;;;;;5037533;28;20045;-66
2022/12/22 12:09:39;;;;;;;28.42;8.15;;;8.80;99.90;;;;;;5051181;28;20136;-67
2022/12/22 12:12:14;;;;;;;18.70;7.40;;;8.90;99.90;;;;;;5034979;28;20046;-67
2022/12/22 12:15:06;;;;;;;19.48;7.10;;;9.00;99.90;;;;;;5038895;28;20045;-66
2022/12/22 12:17:32;;;;;;;19.48;7.80;;;9.00;99.90;;;;;;5035823;28;20037;-65
2022/12/22 12:20:26;;;;;;;21.77;8.23;;;9.00;99.90;;;;;;5011550;28;20033;-65
2022/12/22 12:23:06;;;;;;;19.38;7.18;;;9.10;99.90;;;;;;5018999;28;20042;-65
2022/12/22 12:25:40;;;;;;;21.52;7.85;;;9.10;99.90;;;;;;5026903;28;20438;-67
2022/12/22 12:28:05;;;;;;;26.70;8.60;;;9.10;99.90;;;;;;5031543;28;20048;-67
2022/12/22 12:30:54;;;;;;;20.42;8.05;;;9.20;99.90;;;;;;5035534;28;20033;-65
2022/12/22 12:33:45;;;;;;;20.15;8.13;;;9.20;99.90;;;;;;5038186;28;20048;-66
2022/12/22 12:36:28;;;;;;;20.63;8.45;;;9.20;99.90;;;;;;5031379;28;20187;-65
2022/12/22 12:39:13;;;;;;;26.65;8.15;;;9.30;99.90;;;;;;5029429;28;20049;-66
2022/12/22 12:41:58;;;;;;;20.70;8.27;;;9.30;99.90;;;;;;5014372;28;20042;-66
2022/12/22 12:44:31;;;;;;;23.27;8.93;;;9.40;99.90;;;;;;5019122;22;20160;-69
2022/12/22 12:47:20;;;;;;;20.70;8.43;;;9.40;99.90;;;;;;4992149;28;20762;-70
2022/12/22 12:50:12;;;;;;;20.10;7.85;;;9.50;99.90;;;;;;4988940;28;20152;-70
2022/12/22 12:52:38;;;;;;;25.15;9.13;;;9.50;99.90;;;;;;4987149;28;20428;-69
2022/12/22 12:55:29;;;;;;;24.23;8.30;;;9.50;99.90;;;;;;4998619;28;20056;-69
2022/12/22 12:57:56;;;;;;;23.42;8.63;;;9.60;99.90;;;;;;4992821;28;20088;-69
2022/12/22 13:00:31;;;;;;;21.73;8.32;;;9.60;99.90;;;;;;5013319;28;20045;-70
2022/12/22 13:03:08;;;;;;;21.33;8.43;;;9.60;99.90;;;;;;4988825;28;20133;-69
2022/12/22 13:05:55;;;;;;;23.83;7.85;;;9.70;99.90;;;;;;4995844;28;20042;-69
2022/12/22 13:08:31;;;;;;;23.70;8.10;;;9.70;99.90;;;;;;4991783;28;20042;-69
2022/12/22 13:10:56;;;;;;;19.17;7.53;;;9.70;99.90;;;;;;5006891;28;20076;-69
2022/12/22 13:13:25;;;;;;;15.95;6.50;;;9.80;99.90;;;;;;4996051;28;20046;-69
2022/12/22 13:16:00;;;;;;;16.85;6.13;;;9.80;99.90;;;;;;4998078;28;20038;-69
2022/12/22 13:18:28;;;;;;;17.65;6.30;;;9.80;99.90;;;;;;5013864;28;20113;-70
2022/12/22 13:21:05;;;;;;;17.58;6.20;;;9.80;99.90;;;;;;4978433;28;20174;-69
2022/12/22 13:23:41;;;;;;;17.67;6.03;;;9.80;99.90;;;;;;4990217;28;20708;-69
2022/12/22 13:26:14;;;;;;;18.55;5.85;;;9.80;99.90;;;;;;4982007;28;20042;-69
2022/12/22 13:28:42;;;;;;;15.38;6.50;;;9.80;99.90;;;;;;4990611;28;20041;-69
2022/12/22 13:31:27;;;;;;;15.90;5.82;;;9.80;99.90;;;;;;4990364;28;20046;-68
2022/12/22 13:34:18;;;;;;;15.57;5.68;;;9.80;99.90;;;;;;4996085;28;20038;-68
2022/12/22 13:36:45;;;;;;;11.85;5.35;;;9.80;99.90;;;;;;5003624;28;20125;-68
2022/12/22 13:39:13;;;;;;;17.58;5.40;;;9.80;99.90;;;;;;5007934;28;20041;-66
2022/12/22 13:41:41;;;;;;;15.23;5.30;;;9.80;99.90;;;;;;5002017;28;20081;-68
2022/12/22 13:44:14;;;;;;;13.52;5.53;;;9.80;99.90;;;;;;4988425;28;20042;-68
2022/12/22 13:46:41;;;;;;;12.63;5.03;;;9.80;99.90;;;;;;5009520;28;20046;-68
2022/12/22 13:49:12;;;;;;;15.63;5.28;;;9.70;99.90;;;;;;4987503;28;20046;-68
2022/12/22 13:51:38;;;;;;;17.08;5.20;;;9.70;99.90;;;;;;4983367;28;20057;-68
2022/12/22 13:54:17;;;;;;;14.77;4.75;;;9.70;99.90;;;;;;4990910;28;20443;-68
2022/12/22 13:56:57;;;;;;;12.27;5.15;;;9.60;99.90;;;;;;5005290;28;20400;-68
2022/12/22 13:59:29;;;;;;;11.88;5.03;;;9.60;99.90;;;;;;4981015;28;20042;-69
2022/12/22 14:02:15;;;;;;;19.02;5.55;;;9.50;99.90;;;;;;4993335;28;20561;-69
2022/12/22 14:05:02;;;;;;;14.27;5.65;;;9.50;99.90;;;;;;5009026;28;20037;-69
2022/12/22 14:07:28;;;;;;;14.50;5.78;;;9.50;99.90;;;;;;5002971;28;20056;-69
2022/12/22 14:09:55;;;;;;;16.27;5.60;;;9.40;99.90;;;;;;5007568;28;20038;-69
2022/12/22 14:12:23;;;;;;;12.98;5.68;;;9.30;99.90;;;;;;5007052;28;20038;-69
2022/12/22 14:14:51;;;;;;;15.23;5.85;;;9.20;99.90;;;;;;5005734;28;24066;-69
2022/12/22 14:17:29;;;;;;;15.80;5.80;;;9.10;99.90;;;;;;5007823;28;20077;-70
2022/12/22 14:19:57;;;;;;;16.65;5.95;;;9.10;99.90;;;;;;4999105;28;20132;-67
2022/12/22 14:22:52;;;;;;;16.50;6.57;;;9.10;99.90;;;;;;5007686;28;20038;-70
2022/12/22 14:25:22;;;;;;;12.73;6.25;;;9.10;99.90;;;;;;5000331;28;20046;-67
2022/12/22 14:27:51;;;;;;;16.27;6.35;;;9.10;99.90;;;;;;5009001;28;20042;-68
2022/12/22 14:30:19;;;;;;;16.70;6.05;;;9.10;99.90;;;;;;5008886;28;20703;-68
2022/12/22 14:32:48;;;;;;;15.45;6.07;;;9.20;99.90;;;;;;4993605;28;20049;-68
2022/12/22 14:35:19;;;;;;;13.98;5.35;;;9.20;99.90;;;;;;4988169;28;20506;-67
2022/12/22 14:37:47;;;;;;;14.73;5.85;;;9.20;99.90;;;;;;5008790;28;20387;-67
2022/12/22 14:40:28;;;;;;;14.00;5.95;;;9.10;99.90;;;;;;5016562;28;20511;-67
2022/12/22 14:42:55;;;;;;;14.65;6.40;;;9.00;99.90;;;;;;5004491;28;20039;-66
2022/12/22 14:45:22;;;;;;;13.68;5.38;;;9.00;99.90;;;;;;4986944;28;20092;-66
2022/12/22 14:47:48;;;;;;;16.75;6.10;;;9.00;99.90;;;;;;4989389;28;20057;-66
2022/12/22 14:50:20;;;;;;;11.32;6.18;;;8.90;99.90;;;;;;4961032;28;20046;-69
2022/12/22 14:52:49;;;;;;;;;;;8.80;99.90;;;;;;4988458;28;20088;-68
2022/12/22 14:55:30;;;;;;;15.30;6.22;;;8.80;99.90;;;;;;4988900;28;19948;-68
2022/12/22 14:58:02;;;;;;;15.18;6.70;;;8.70;99.90;;;;;;4966771;28;20550;-69
2022/12/22 15:00:40;;;;;;;17.08;6.53;;;8.70;99.90;;;;;;4981236;28;20137;-68
2022/12/22 15:03:31;;;;;;;13.60;6.88;;;8.50;99.90;;;;;;4980225;28;20056;-68
2022/12/22 15:06:30;;;;;;;14.88;6.90;;;8.40;99.90;;;;;;4964644;28;20520;-68
2022/12/22 15:09:07;;;;;;;15.10;7.05;;;8.30;99.90;;;;;;4964957;28;20046;-68
2022/12/22 15:11:35;;;;;;;18.20;6.85;;;8.20;99.90;;;;;;4965199;28;20057;-68
2022/12/22 15:14:03;;;;;;;17.92;7.10;;;8.10;99.90;;;;;;4976072;28;20069;-68
2022/12/22 15:16:29;;;;;;;19.15;9.35;;;8.00;99.90;;;;;;4958999;28;20050;-68
2022/12/22 15:18:55;;;;;;;17.92;8.00;;;8.00;99.90;;;;;;4984835;28;20078;-68
2022/12/22 15:21:21;;;;;;;21.45;9.10;;;8.10;99.90;;;;;;4969601;28;20042;-69
2022/12/22 15:23:48;;;;;;;22.17;10.02;;;8.10;99.90;;;;;;4969383;28;20460;-68
2022/12/22 15:26:13;;;;;;;21.02;10.27;;;8.10;99.90;;;;;;4988338;28;20073;-68
2022/12/22 15:28:42;;;;;;;20.77;10.57;;;8.20;99.90;;;;;;4971427;28;20081;-68
2022/12/22 15:31:14;;;;;;;24.23;11.18;;;8.30;99.90;;;;;;4964532;28;20437;-68
2022/12/22 15:33:40;;;;;;;19.75;11.15;;;8.40;99.90;;;;;;4976306;28;20046;-69
2022/12/22 15:36:09;;;;;;;21.42;11.07;;;8.40;99.90;;;;;;4967335;28;20045;-68
2022/12/22 15:38:37;;;;;;;26.20;11.93;;;8.40;99.90;;;;;;4982696;28;20117;-68
2022/12/22 15:41:02;;;;;;;24.50;13.10;;;8.40;99.90;;;;;;4968409;28;20070;-69
2022/12/22 15:43:28;;;;;;;22.38;11.38;;;8.50;99.90;;;;;;4978196;28;20129;-68
2022/12/22 15:45:54;;;;;;;21.08;11.45;;;8.50;99.90;;;;;;4990246;28;20113;-67
2022/12/22 15:48:30;;;;;;;19.83;11.75;;;8.50;99.90;;;;;;4995806;28;20081;-67
2022/12/22 15:50:57;;;;;;;23.77;11.32;;;8.40;99.90;;;;;;5002519;28;20042;-66
2022/12/22 15:53:22;;;;;;;17.90;10.23;;;8.40;99.90;;;;;;4990769;28;20034;-67
2022/12/22 15:55:51;;;;;;;19.92;10.55;;;8.40;99.90;;;;;;5002294;28;20042;-67
2022/12/22 15:58:21;;;;;;;17.75;10.70;;;8.30;99.90;;;;;;4988481;28;20068;-67
2022/12/22 16:00:47;;;;;;;21.83;10.90;;;8.30;99.90;;;;;;5007374;28;20400;-69
2022/12/22 16:03:22;;;;;;;21.63;11.20;;;8.20;99.90;;;;;;5005234;28;20034;-68
2022/12/22 16:05:53;;;;;;;20.65;10.80;;;8.20;99.90;;;;;;5000478;28;20378;-68
2022/12/22 16:08:29;;;;;;;25.75;10.40;;;8.20;99.90;;;;;;4999955;28;20046;-68
2022/12/22 16:10:55;;;;;;;24.10;11.70;;;8.20;99.90;;;;;;5007192;28;20041;-68
2022/12/22 16:13:25;;;;;;;25.13;11.07;;;8.20;99.90;;;;;;4987289;28;20049;-68
2022/12/22 16:15:51;;;;;;;21.80;12.10;;;8.20;99.90;;;;;;4991171;28;20557;-68
2022/12/22 16:18:17;;;;;;;28.83;12.20;;;8.20;99.90;;;;;;5009756;28;20045;-68
2022/12/22 16:20:44;;;;;;;23.95;11.40;;;8.20;99.90;;;;;;4988392;28;20042;-68
2022/12/22 16:23:24;;;;;;;25.95;12.15;;;8.20;99.90;;;;;;5003601;28;20050;-68
2022/12/22 16:25:51;;;;;;;26.88;12.95;;;8.20;99.90;;;;;;5011279;28;20046;-69
2022/12/22 16:28:20;;;;;;;28.67;13.20;;;8.20;99.90;;;;;;5005493;28;20105;-69
2022/12/22 16:30:47;;;;;;;23.90;12.60;;;8.20;99.90;;;;;;5004597;28;20029;-69
2022/12/22 16:33:13;;;;;;;28.15;13.73;;;8.30;99.90;;;;;;5009080;28;20109;-68
2022/12/22 16:35:40;;;;;;;25.02;12.25;;;8.30;99.90;;;;;;4992449;28;20045;-69